QBA37M CYMM-CYEG
Flight info
| Callsign | QBA37M |
|---|---|
| Flight time | 0h 44m |
| Altitude | 36000 |
| Route | VIKTU1/26 VIKTU DCT CACHO Q856 RESAX RESAX1 |
| Aircraft | B736/M-SDE2E3FGHIRWXY/LB1 |
Departure
| Time | 2026-04-29 01:13 |
|---|---|
| Airport | Fort McMurray International Airport (CYMM) |
Arrival
| Time | 2026-04-29 01:57 |
|---|---|
| Airport | Edmonton International Airport (CYEG) |
| Time | Latitude | Longitude | Altitude | Speed | Heading |
|---|---|---|---|---|---|
| 2026-04-29 00:41 | 56.65017 | -111.22886 | 1214 ft | 0 kts | 268° |
| 2026-04-29 01:03 | 56.65018 | -111.22874 | 1214 ft | 4 kts | 267° |
| 2026-04-29 01:04 | 56.65020 | -111.22825 | 1214 ft | 4 kts | 259° |
| 2026-04-29 01:04 | 56.65027 | -111.22779 | 1214 ft | 4 kts | 244° |
| 2026-04-29 01:04 | 56.65042 | -111.22744 | 1214 ft | 4 kts | 197° |
| 2026-04-29 01:04 | 56.65049 | -111.22741 | 1214 ft | 1 kts | 178° |
| 2026-04-29 01:06 | 56.65030 | -111.22739 | 1214 ft | 6 kts | 178° |
| 2026-04-29 01:07 | 56.64980 | -111.22737 | 1214 ft | 8 kts | 179° |
| 2026-04-29 01:07 | 56.64915 | -111.22739 | 1214 ft | 10 kts | 181° |
| 2026-04-29 01:07 | 56.64845 | -111.22726 | 1214 ft | 10 kts | 148° |
| 2026-04-29 01:07 | 56.64831 | -111.22605 | 1214 ft | 10 kts | 90° |
| 2026-04-29 01:08 | 56.64858 | -111.22505 | 1214 ft | 10 kts | 19° |
| 2026-04-29 01:08 | 56.64924 | -111.22498 | 1214 ft | 9 kts | 360° |
| 2026-04-29 01:08 | 56.64995 | -111.22497 | 1214 ft | 11 kts | 1° |
| 2026-04-29 01:08 | 56.65082 | -111.22494 | 1214 ft | 13 kts | 1° |
| 2026-04-29 01:09 | 56.65159 | -111.22448 | 1214 ft | 12 kts | 65° |
| 2026-04-29 01:09 | 56.65167 | -111.22301 | 1214 ft | 12 kts | 88° |
| 2026-04-29 01:09 | 56.65167 | -111.22125 | 1214 ft | 16 kts | 90° |
| 2026-04-29 01:09 | 56.65167 | -111.21910 | 1214 ft | 18 kts | 90° |
| 2026-04-29 01:10 | 56.65167 | -111.21688 | 1214 ft | 17 kts | 89° |
| 2026-04-29 01:10 | 56.65166 | -111.21474 | 1214 ft | 17 kts | 90° |
| 2026-04-29 01:10 | 56.65166 | -111.21268 | 1214 ft | 16 kts | 90° |
| 2026-04-29 01:10 | 56.65166 | -111.21069 | 1214 ft | 15 kts | 90° |
| 2026-04-29 01:11 | 56.65165 | -111.20879 | 1214 ft | 15 kts | 90° |
| 2026-04-29 01:11 | 56.65165 | -111.20696 | 1214 ft | 14 kts | 90° |
| 2026-04-29 01:11 | 56.65168 | -111.20531 | 1214 ft | 10 kts | 71° |
| 2026-04-29 01:11 | 56.65217 | -111.20492 | 1214 ft | 5 kts | 359° |
| 2026-04-29 01:12 | 56.65251 | -111.20493 | 1214 ft | 5 kts | 359° |
| 2026-04-29 01:12 | 56.65296 | -111.20495 | 1214 ft | 9 kts | 359° |
| 2026-04-29 01:12 | 56.65324 | -111.20571 | 1214 ft | 9 kts | 269° |
| 2026-04-29 01:12 | 56.65324 | -111.20700 | 1214 ft | 15 kts | 270° |
| 2026-04-29 01:13 | 56.65324 | -111.21330 | 1214 ft | 86 kts | 270° |
| 2026-04-29 01:13 | 56.65325 | -111.22802 | 1215 ft | 144 kts | 269° |
| 2026-04-29 01:13 | 56.65313 | -111.24728 | 1599 ft | 157 kts | 268° |
| 2026-04-29 01:13 | 56.65302 | -111.26768 | 2172 ft | 165 kts | 270° |
| 2026-04-29 01:14 | 56.65299 | -111.28883 | 2668 ft | 181 kts | 271° |
| 2026-04-29 01:14 | 56.65298 | -111.31347 | 3140 ft | 199 kts | 271° |
| 2026-04-29 01:14 | 56.65301 | -111.33879 | 3689 ft | 212 kts | 272° |
| 2026-04-29 01:14 | 56.65309 | -111.36748 | 3937 ft | 242 kts | 271° |
| 2026-04-29 01:15 | 56.65315 | -111.39924 | 4469 ft | 257 kts | 270° |
| 2026-04-29 01:15 | 56.65104 | -111.43146 | 5063 ft | 260 kts | 248° |
| 2026-04-29 01:15 | 56.63945 | -111.45674 | 5898 ft | 266 kts | 217° |
| 2026-04-29 01:15 | 56.62307 | -111.47260 | 6820 ft | 270 kts | 205° |
| 2026-04-29 01:16 | 56.60525 | -111.48513 | 7612 ft | 279 kts | 201° |
| 2026-04-29 01:16 | 56.58676 | -111.49704 | 8460 ft | 286 kts | 201° |
| 2026-04-29 01:16 | 56.56779 | -111.50909 | 9349 ft | 293 kts | 201° |
| 2026-04-29 01:16 | 56.54833 | -111.52152 | 10231 ft | 300 kts | 201° |
| 2026-04-29 01:17 | 56.52798 | -111.53467 | 10715 ft | 322 kts | 201° |
| 2026-04-29 01:17 | 56.50653 | -111.54866 | 11430 ft | 332 kts | 201° |
| 2026-04-29 01:17 | 56.48459 | -111.56303 | 12343 ft | 337 kts | 202° |
| 2026-04-29 01:17 | 56.46246 | -111.57759 | 13327 ft | 341 kts | 202° |
| 2026-04-29 01:18 | 56.43999 | -111.59241 | 14229 ft | 346 kts | 202° |
| 2026-04-29 01:18 | 56.39410 | -111.62273 | 15975 ft | 355 kts | 202° |
| 2026-04-29 01:18 | 56.37078 | -111.63814 | 16863 ft | 359 kts | 202° |
| 2026-04-29 01:19 | 56.34714 | -111.65376 | 17750 ft | 364 kts | 202° |
| 2026-04-29 01:19 | 56.32320 | -111.66956 | 18603 ft | 369 kts | 202° |
| 2026-04-29 01:19 | 56.29889 | -111.68558 | 19354 ft | 375 kts | 202° |
| 2026-04-29 01:19 | 56.27424 | -111.70180 | 20086 ft | 380 kts | 202° |
| 2026-04-29 01:20 | 56.24952 | -111.71804 | 20829 ft | 385 kts | 202° |
| 2026-04-29 01:20 | 56.22418 | -111.73467 | 21588 ft | 391 kts | 202° |
| 2026-04-29 01:20 | 56.19847 | -111.75152 | 22319 ft | 396 kts | 202° |
| 2026-04-29 01:20 | 56.17234 | -111.76862 | 23064 ft | 402 kts | 202° |
| 2026-04-29 01:21 | 56.14589 | -111.78590 | 23794 ft | 408 kts | 201° |
| 2026-04-29 01:21 | 56.11908 | -111.80339 | 24421 ft | 412 kts | 201° |
| 2026-04-29 01:21 | 56.09201 | -111.82102 | 25102 ft | 415 kts | 201° |
| 2026-04-29 01:21 | 56.06474 | -111.83875 | 25789 ft | 419 kts | 201° |
| 2026-04-29 01:22 | 56.03722 | -111.85662 | 26435 ft | 422 kts | 202° |
| 2026-04-29 01:22 | 56.00950 | -111.87460 | 27065 ft | 426 kts | 202° |
| 2026-04-29 01:22 | 55.98152 | -111.89273 | 27678 ft | 430 kts | 202° |
| 2026-04-29 01:22 | 55.95326 | -111.91100 | 28300 ft | 434 kts | 202° |
| 2026-04-29 01:23 | 55.92484 | -111.92934 | 29005 ft | 434 kts | 202° |
| 2026-04-29 01:23 | 55.89631 | -111.94772 | 29620 ft | 438 kts | 202° |
| 2026-04-29 01:23 | 55.86759 | -111.96620 | 30204 ft | 440 kts | 201° |
| 2026-04-29 01:23 | 55.83872 | -111.98476 | 30717 ft | 442 kts | 201° |
| 2026-04-29 01:24 | 55.80985 | -112.00327 | 31322 ft | 441 kts | 201° |
| 2026-04-29 01:24 | 55.78102 | -112.02172 | 31999 ft | 438 kts | 202° |
| 2026-04-29 01:24 | 55.75240 | -112.04001 | 32594 ft | 437 kts | 202° |
| 2026-04-29 01:24 | 55.72374 | -112.05831 | 33120 ft | 438 kts | 202° |
| 2026-04-29 01:25 | 55.69508 | -112.07659 | 33643 ft | 438 kts | 202° |
| 2026-04-29 01:25 | 55.66642 | -112.09483 | 34181 ft | 437 kts | 202° |
| 2026-04-29 01:25 | 55.63782 | -112.11300 | 34626 ft | 436 kts | 202° |
| 2026-04-29 01:25 | 55.60923 | -112.13114 | 35063 ft | 436 kts | 202° |
| 2026-04-29 01:26 | 55.58075 | -112.14918 | 35490 ft | 435 kts | 202° |
| 2026-04-29 01:26 | 55.55223 | -112.16723 | 35862 ft | 435 kts | 202° |
| 2026-04-29 01:26 | 55.52364 | -112.18529 | 36162 ft | 439 kts | 202° |
| 2026-04-29 01:26 | 55.49466 | -112.20359 | 36127 ft | 444 kts | 202° |
| 2026-04-29 01:27 | 55.43689 | -112.23992 | 36130 ft | 436 kts | 202° |
| 2026-04-29 01:27 | 55.38004 | -112.27555 | 36151 ft | 434 kts | 202° |
| 2026-04-29 01:28 | 55.32293 | -112.31128 | 36154 ft | 437 kts | 202° |
| 2026-04-29 01:28 | 55.26556 | -112.34706 | 36156 ft | 438 kts | 202° |
| 2026-04-29 01:29 | 55.20839 | -112.38259 | 36141 ft | 439 kts | 201° |
| 2026-04-29 01:29 | 55.15074 | -112.41830 | 36147 ft | 439 kts | 201° |
| 2026-04-29 01:30 | 55.09328 | -112.45379 | 36142 ft | 437 kts | 201° |
| 2026-04-29 01:30 | 55.03650 | -112.48874 | 36120 ft | 422 kts | 202° |
| 2026-04-29 01:31 | 55.00928 | -112.50544 | 36145 ft | 408 kts | 202° |
| 2026-04-29 01:31 | 54.98294 | -112.52160 | 36126 ft | 395 kts | 202° |
| 2026-04-29 01:31 | 54.93171 | -112.55303 | 36175 ft | 394 kts | 202° |
| 2026-04-29 01:32 | 54.88806 | -112.57982 | 36173 ft | 404 kts | 202° |
| 2026-04-29 01:32 | 54.86176 | -112.59613 | 35943 ft | 399 kts | 202° |
| 2026-04-29 01:32 | 54.83548 | -112.61252 | 35048 ft | 405 kts | 202° |
| 2026-04-29 01:33 | 54.80861 | -112.62931 | 34000 ft | 416 kts | 202° |
| 2026-04-29 01:33 | 54.78109 | -112.64649 | 32927 ft | 422 kts | 202° |
| 2026-04-29 01:33 | 54.75357 | -112.66359 | 32197 ft | 418 kts | 201° |
| 2026-04-29 01:33 | 54.72640 | -112.68041 | 31633 ft | 411 kts | 201° |
| 2026-04-29 01:34 | 54.69962 | -112.69696 | 31073 ft | 405 kts | 201° |
| 2026-04-29 01:34 | 54.67328 | -112.71321 | 30483 ft | 399 kts | 201° |
| 2026-04-29 01:34 | 54.64733 | -112.72922 | 29872 ft | 394 kts | 201° |
| 2026-04-29 01:34 | 54.62169 | -112.74502 | 29169 ft | 389 kts | 201° |
| 2026-04-29 01:35 | 54.59632 | -112.76063 | 28438 ft | 386 kts | 201° |
| 2026-04-29 01:35 | 54.57141 | -112.77595 | 27737 ft | 383 kts | 201° |
| 2026-04-29 01:35 | 54.54642 | -112.79129 | 27248 ft | 380 kts | 201° |
| 2026-04-29 01:35 | 54.52124 | -112.80673 | 26800 ft | 378 kts | 201° |
| 2026-04-29 01:36 | 54.49653 | -112.82187 | 26382 ft | 376 kts | 201° |
| 2026-04-29 01:36 | 54.47200 | -112.83686 | 25980 ft | 373 kts | 201° |
| 2026-04-29 01:36 | 54.44759 | -112.85177 | 25584 ft | 371 kts | 201° |
| 2026-04-29 01:36 | 54.42372 | -112.86633 | 25208 ft | 368 kts | 202° |
| 2026-04-29 01:37 | 54.39968 | -112.88098 | 24821 ft | 366 kts | 202° |
| 2026-04-29 01:37 | 54.37576 | -112.89553 | 24445 ft | 364 kts | 202° |
| 2026-04-29 01:37 | 54.35198 | -112.90998 | 24065 ft | 361 kts | 202° |
| 2026-04-29 01:37 | 54.32836 | -112.92432 | 23680 ft | 359 kts | 202° |
| 2026-04-29 01:38 | 54.30490 | -112.93854 | 23215 ft | 357 kts | 202° |
| 2026-04-29 01:38 | 54.28158 | -112.95266 | 22807 ft | 354 kts | 202° |
| 2026-04-29 01:38 | 54.25846 | -112.96664 | 22424 ft | 351 kts | 202° |
| 2026-04-29 01:38 | 54.23555 | -112.98048 | 22057 ft | 348 kts | 202° |
| 2026-04-29 01:39 | 54.21282 | -112.99419 | 21676 ft | 345 kts | 202° |
| 2026-04-29 01:39 | 54.19027 | -113.00778 | 21300 ft | 342 kts | 202° |
| 2026-04-29 01:39 | 54.16790 | -113.02125 | 20934 ft | 340 kts | 202° |
| 2026-04-29 01:39 | 54.14568 | -113.03461 | 20568 ft | 337 kts | 202° |
| 2026-04-29 01:40 | 54.12361 | -113.04787 | 20206 ft | 335 kts | 202° |
| 2026-04-29 01:40 | 54.10170 | -113.06101 | 19849 ft | 333 kts | 202° |
| 2026-04-29 01:40 | 54.07994 | -113.07405 | 19496 ft | 331 kts | 202° |
| 2026-04-29 01:40 | 54.05830 | -113.08701 | 19144 ft | 328 kts | 202° |
| 2026-04-29 01:41 | 54.03682 | -113.09986 | 18795 ft | 327 kts | 202° |
| 2026-04-29 01:41 | 54.01543 | -113.11264 | 18440 ft | 325 kts | 201° |
| 2026-04-29 01:41 | 53.99412 | -113.12537 | 18039 ft | 323 kts | 201° |
| 2026-04-29 01:41 | 53.97298 | -113.13797 | 17659 ft | 322 kts | 201° |
| 2026-04-29 01:42 | 53.95171 | -113.15063 | 17226 ft | 327 kts | 201° |
| 2026-04-29 01:42 | 53.93014 | -113.16347 | 16871 ft | 330 kts | 201° |
| 2026-04-29 01:42 | 53.90850 | -113.17637 | 16580 ft | 330 kts | 202° |
| 2026-04-29 01:42 | 53.88676 | -113.18933 | 16213 ft | 333 kts | 202° |
| 2026-04-29 01:43 | 53.86482 | -113.20240 | 15835 ft | 336 kts | 202° |
| 2026-04-29 01:43 | 53.84307 | -113.21534 | 15459 ft | 334 kts | 202° |
| 2026-04-29 01:43 | 53.82123 | -113.22831 | 15081 ft | 330 kts | 202° |
| 2026-04-29 01:43 | 53.79983 | -113.24099 | 14697 ft | 324 kts | 202° |
| 2026-04-29 01:44 | 53.77863 | -113.25356 | 14330 ft | 323 kts | 202° |
| 2026-04-29 01:44 | 53.75746 | -113.26611 | 14091 ft | 322 kts | 202° |
| 2026-04-29 01:44 | 53.73622 | -113.27869 | 14063 ft | 324 kts | 201° |
| 2026-04-29 01:44 | 53.71511 | -113.29118 | 14047 ft | 318 kts | 201° |
| 2026-04-29 01:45 | 53.69456 | -113.30330 | 13844 ft | 309 kts | 202° |
| 2026-04-29 01:45 | 53.67446 | -113.31516 | 13373 ft | 305 kts | 202° |
| 2026-04-29 01:45 | 53.65444 | -113.32697 | 12822 ft | 304 kts | 202° |
| 2026-04-29 01:45 | 53.63455 | -113.33869 | 12387 ft | 300 kts | 202° |
| 2026-04-29 01:46 | 53.61528 | -113.34998 | 12132 ft | 289 kts | 202° |
| 2026-04-29 01:46 | 53.59602 | -113.35771 | 11845 ft | 282 kts | 186° |
| 2026-04-29 01:46 | 53.57662 | -113.35899 | 11502 ft | 277 kts | 183° |
| 2026-04-29 01:46 | 53.55739 | -113.36013 | 11067 ft | 276 kts | 184° |
| 2026-04-29 01:47 | 53.53822 | -113.36157 | 10648 ft | 275 kts | 185° |
| 2026-04-29 01:47 | 53.51923 | -113.36309 | 10248 ft | 273 kts | 183° |
| 2026-04-29 01:47 | 53.50036 | -113.36029 | 9775 ft | 273 kts | 171° |
| 2026-04-29 01:47 | 53.48172 | -113.35386 | 9340 ft | 272 kts | 169° |
| 2026-04-29 01:48 | 53.46342 | -113.34714 | 9019 ft | 266 kts | 169° |
| 2026-04-29 01:48 | 53.44549 | -113.34079 | 8701 ft | 260 kts | 169° |
| 2026-04-29 01:48 | 53.42795 | -113.33486 | 8408 ft | 255 kts | 169° |
| 2026-04-29 01:48 | 53.41074 | -113.32920 | 8276 ft | 250 kts | 170° |
| 2026-04-29 01:49 | 53.39371 | -113.32367 | 8164 ft | 248 kts | 170° |
| 2026-04-29 01:49 | 53.37679 | -113.31820 | 8044 ft | 247 kts | 170° |
| 2026-04-29 01:49 | 53.35982 | -113.31213 | 7843 ft | 251 kts | 167° |
| 2026-04-29 01:49 | 53.34272 | -113.30539 | 7628 ft | 253 kts | 167° |
| 2026-04-29 01:50 | 53.32567 | -113.29861 | 7400 ft | 251 kts | 167° |
| 2026-04-29 01:50 | 53.30881 | -113.29195 | 7182 ft | 246 kts | 167° |
| 2026-04-29 01:50 | 53.29241 | -113.28551 | 6980 ft | 238 kts | 167° |
| 2026-04-29 01:50 | 53.27658 | -113.27933 | 6750 ft | 230 kts | 167° |
| 2026-04-29 01:51 | 53.26126 | -113.27337 | 6536 ft | 221 kts | 167° |
| 2026-04-29 01:51 | 53.24651 | -113.26764 | 6326 ft | 214 kts | 167° |
| 2026-04-29 01:51 | 53.23206 | -113.26260 | 6126 ft | 211 kts | 176° |
| 2026-04-29 01:51 | 53.21836 | -113.26871 | 5967 ft | 205 kts | 218° |
| 2026-04-29 01:52 | 53.20774 | -113.28454 | 5816 ft | 205 kts | 227° |
| 2026-04-29 01:52 | 53.19780 | -113.30131 | 5610 ft | 201 kts | 227° |
| 2026-04-29 01:52 | 53.18806 | -113.31782 | 5416 ft | 197 kts | 227° |
| 2026-04-29 01:52 | 53.17862 | -113.33386 | 5246 ft | 196 kts | 230° |
| 2026-04-29 01:53 | 53.17276 | -113.35382 | 5089 ft | 193 kts | 268° |
| 2026-04-29 01:53 | 53.17504 | -113.37533 | 5058 ft | 190 kts | 301° |
| 2026-04-29 01:53 | 53.18389 | -113.39098 | 5073 ft | 186 kts | 320° |
| 2026-04-29 01:53 | 53.19319 | -113.40591 | 5035 ft | 183 kts | 316° |
| 2026-04-29 01:54 | 53.20210 | -113.42089 | 4843 ft | 179 kts | 315° |
| 2026-04-29 01:54 | 53.21051 | -113.43508 | 4612 ft | 165 kts | 316° |
| 2026-04-29 01:54 | 53.21830 | -113.44816 | 4356 ft | 155 kts | 317° |
| 2026-04-29 01:54 | 53.22555 | -113.46036 | 4129 ft | 142 kts | 317° |
| 2026-04-29 01:55 | 53.23231 | -113.47170 | 3943 ft | 134 kts | 317° |
| 2026-04-29 01:55 | 53.23894 | -113.48282 | 3781 ft | 137 kts | 316° |
| 2026-04-29 01:55 | 53.24567 | -113.49412 | 3573 ft | 137 kts | 317° |
| 2026-04-29 01:55 | 53.25241 | -113.50542 | 3413 ft | 136 kts | 318° |
| 2026-04-29 01:56 | 53.25901 | -113.51649 | 3203 ft | 132 kts | 317° |
| 2026-04-29 01:56 | 53.26549 | -113.52737 | 3011 ft | 131 kts | 317° |
| 2026-04-29 01:56 | 53.27193 | -113.53821 | 2818 ft | 132 kts | 316° |
| 2026-04-29 01:56 | 53.27842 | -113.54909 | 2633 ft | 133 kts | 317° |
| 2026-04-29 01:57 | 53.28488 | -113.56000 | 2484 ft | 132 kts | 317° |
| 2026-04-29 01:57 | 53.29104 | -113.57028 | 2349 ft | 114 kts | 317° |
| 2026-04-29 01:57 | 53.29515 | -113.57710 | 2350 ft | 59 kts | 315° |
| 2026-04-29 01:57 | 53.29744 | -113.58087 | 2354 ft | 32 kts | 315° |
| 2026-04-29 01:58 | 53.29887 | -113.58205 | 2355 ft | 20 kts | 0° |
| 2026-04-29 01:58 | 53.29956 | -113.58205 | 2354 ft | 7 kts | 359° |
| 2026-04-29 01:58 | 53.30003 | -113.58206 | 2354 ft | 7 kts | 359° |
| 2026-04-29 01:58 | 53.30056 | -113.58207 | 2354 ft | 8 kts | 359° |
| 2026-04-29 01:59 | 53.30116 | -113.58240 | 2355 ft | 10 kts | 318° |
| 2026-04-29 01:59 | 53.30168 | -113.58326 | 2355 ft | 11 kts | 313° |
| 2026-04-29 01:59 | 53.30222 | -113.58408 | 2355 ft | 10 kts | 342° |
| 2026-04-29 01:59 | 53.30284 | -113.58355 | 2355 ft | 10 kts | 45° |
| 2026-04-29 02:00 | 53.30337 | -113.58280 | 2354 ft | 10 kts | 14° |
| 2026-04-29 02:00 | 53.30395 | -113.58334 | 2354 ft | 10 kts | 317° |
| 2026-04-29 02:00 | 53.30440 | -113.58381 | 2354 ft | 5 kts | 23° |
| 2026-04-29 02:00 | 53.30465 | -113.58341 | 2354 ft | 5 kts | 44° |
| 2026-04-29 02:01 | 53.30487 | -113.58305 | 2354 ft | 3 kts | 45° |
| 2026-04-29 02:01 | 53.30495 | -113.58291 | 2354 ft | 0 kts | 45° |
| 2026-04-29 02:02 | 53.30495 | -113.58290 | 2354 ft | 0 kts | 46° |